Terminal Aerodrome Forecast
Issued by NWS Cheyenne, WY

Home | Current Version | Previous Version | Text Only | Print | Product List | Glossary On
Versions: 1 2 3 4 5 6 7 8 9 10 11 12 13 14 15 16 17 18 19 20 21 22
000
FTUS45 KCYS 211100
TAFCYS
TAF
KCYS 211120Z 2112/2212 14008KT P6SM BKN050
     FM211600 16014G24KT P6SM BKN120
     FM220100 15012KT P6SM VCSH BKN050 OVC100=

USA.gov is the U.S. government's official web portal to all federal, state and local government web resources and services.